sensor_id;sensor_type;location;lat;lon;timestamp;temperature;humidity
5631;DHT22;2837;50.990;7.124;2022-12-18T06:03:11;0.80;99.90
5631;DHT22;2837;50.990;7.124;2022-12-18T06:05:42;0.90;99.90
5631;DHT22;2837;50.990;7.124;2022-12-18T06:08:08;0.90;99.90
5631;DHT22;2837;50.990;7.124;2022-12-18T06:10:34;0.90;99.90
5631;DHT22;2837;50.990;7.124;2022-12-18T06:13:00;0.80;99.90
5631;DHT22;2837;50.990;7.124;2022-12-18T06:15:25;0.90;99.90
5631;DHT22;2837;50.990;7.124;2022-12-18T06:17:51;0.90;99.90
5631;DHT22;2837;50.990;7.124;2022-12-18T06:20:17;0.90;99.90
5631;DHT22;2837;50.990;7.124;2022-12-18T06:22:42;0.90;99.90
5631;DHT22;2837;50.990;7.124;2022-12-18T06:25:08;0.80;99.90
5631;DHT22;2837;50.990;7.124;2022-12-18T06:27:34;0.80;99.90
5631;DHT22;2837;50.990;7.124;2022-12-18T06:30:00;0.80;99.90
5631;DHT22;2837;50.990;7.124;2022-12-18T06:32:26;0.70;99.90
5631;DHT22;2837;50.990;7.124;2022-12-18T06:34:51;0.70;99.90
5631;DHT22;2837;50.990;7.124;2022-12-18T06:37:17;0.80;99.90
5631;DHT22;2837;50.990;7.124;2022-12-18T06:39:42;0.80;99.90
5631;DHT22;2837;50.990;7.124;2022-12-18T06:42:08;0.80;99.90
5631;DHT22;2837;50.990;7.124;2022-12-18T06:44:33;0.70;99.90
5631;DHT22;2837;50.990;7.124;2022-12-18T06:46:59;0.70;99.90
5631;DHT22;2837;50.990;7.124;2022-12-18T06:49:25;0.70;99.90
5631;DHT22;2837;50.990;7.124;2022-12-18T06:51:50;0.70;99.90
5631;DHT22;2837;50.990;7.124;2022-12-18T06:54:16;0.80;99.90
5631;DHT22;2837;50.990;7.124;2022-12-18T06:56:41;0.70;99.90
5631;DHT22;2837;50.990;7.124;2022-12-18T06:59:07;0.70;99.90
5631;DHT22;2837;50.990;7.124;2022-12-18T07:01:32;0.70;99.90
5631;DHT22;2837;50.990;7.124;2022-12-18T07:03:58;0.60;99.90
5631;DHT22;2837;50.990;7.124;2022-12-18T07:06:25;0.70;99.90
5631;DHT22;2837;50.990;7.124;2022-12-18T07:08:52;0.70;99.90
5631;DHT22;2837;50.990;7.124;2022-12-18T07:11:18;0.70;99.90
5631;DHT22;2837;50.990;7.124;2022-12-18T07:13:45;0.70;99.90
5631;DHT22;2837;50.990;7.124;2022-12-18T07:16:13;0.60;99.90
5631;DHT22;2837;50.990;7.124;2022-12-18T07:18:39;0.70;99.90
5631;DHT22;2837;50.990;7.124;2022-12-18T07:21:06;0.80;99.90
5631;DHT22;2837;50.990;7.124;2022-12-18T07:23:33;0.80;99.90
5631;DHT22;2837;50.990;7.124;2022-12-18T07:26:04;0.80;99.90
5631;DHT22;2837;50.990;7.124;2022-12-18T07:28:30;0.80;99.90
5631;DHT22;2837;50.990;7.124;2022-12-18T07:30:55;0.80;99.90
5631;DHT22;2837;50.990;7.124;2022-12-18T07:33:21;0.70;99.90
5631;DHT22;2837;50.990;7.124;2022-12-18T07:35:46;0.70;99.90
5631;DHT22;2837;50.990;7.124;2022-12-18T07:38:12;0.70;99.90
5631;DHT22;2837;50.990;7.124;2022-12-18T07:40:37;0.80;99.90
5631;DHT22;2837;50.990;7.124;2022-12-18T07:43:04;0.80;99.90
5631;DHT22;2837;50.990;7.124;2022-12-18T07:45:29;0.80;99.90
5631;DHT22;2837;50.990;7.124;2022-12-18T07:47:55;0.90;99.90
5631;DHT22;2837;50.990;7.124;2022-12-18T07:50:20;0.90;99.90
5631;DHT22;2837;50.990;7.124;2022-12-18T07:52:46;1.00;99.90
5631;DHT22;2837;50.990;7.124;2022-12-18T07:55:11;1.00;99.90
5631;DHT22;2837;50.990;7.124;2022-12-18T07:57:37;1.00;99.90
5631;DHT22;2837;50.990;7.124;2022-12-18T08:00:03;1.00;99.90
5631;DHT22;2837;50.990;7.124;2022-12-18T08:02:31;0.90;99.90
5631;DHT22;2837;50.990;7.124;2022-12-18T08:04:57;1.00;99.90
5631;DHT22;2837;50.990;7.124;2022-12-18T08:07:23;1.00;99.90
5631;DHT22;2837;50.990;7.124;2022-12-18T08:09:49;1.00;99.90
5631;DHT22;2837;50.990;7.124;2022-12-18T08:12:14;1.00;99.90
5631;DHT22;2837;50.990;7.124;2022-12-18T08:14:40;0.90;99.90
5631;DHT22;2837;50.990;7.124;2022-12-18T08:17:06;0.90;99.90
5631;DHT22;2837;50.990;7.124;2022-12-18T08:19:31;1.00;99.90
5631;DHT22;2837;50.990;7.124;2022-12-18T08:21:57;0.90;99.90
5631;DHT22;2837;50.990;7.124;2022-12-18T08:24:22;1.00;99.90
5631;DHT22;2837;50.990;7.124;2022-12-18T08:26:48;1.00;99.90
5631;DHT22;2837;50.990;7.124;2022-12-18T08:29:13;1.00;99.90
5631;DHT22;2837;50.990;7.124;2022-12-18T08:31:39;1.10;99.90
5631;DHT22;2837;50.990;7.124;2022-12-18T08:34:05;1.10;99.90
5631;DHT22;2837;50.990;7.124;2022-12-18T08:36:30;1.10;99.90
5631;DHT22;2837;50.990;7.124;2022-12-18T08:38:57;1.10;99.90
5631;DHT22;2837;50.990;7.124;2022-12-18T08:41:22;1.20;99.90
5631;DHT22;2837;50.990;7.124;2022-12-18T08:43:48;1.20;99.90
5631;DHT22;2837;50.990;7.124;2022-12-18T08:46:43;1.30;99.90
5631;DHT22;2837;50.990;7.124;2022-12-18T08:49:10;1.30;99.90
5631;DHT22;2837;50.990;7.124;2022-12-18T08:51:36;1.20;99.90
5631;DHT22;2837;50.990;7.124;2022-12-18T08:54:02;1.20;99.90
5631;DHT22;2837;50.990;7.124;2022-12-18T08:56:27;1.20;99.90
5631;DHT22;2837;50.990;7.124;2022-12-18T08:58:54;1.30;99.90
5631;DHT22;2837;50.990;7.124;2022-12-18T09:01:20;1.40;99.90
5631;DHT22;2837;50.990;7.124;2022-12-18T09:03:45;1.40;99.90
5631;DHT22;2837;50.990;7.124;2022-12-18T09:06:13;1.50;99.90
5631;DHT22;2837;50.990;7.124;2022-12-18T09:08:39;1.50;99.90
5631;DHT22;2837;50.990;7.124;2022-12-18T09:11:13;1.50;99.90
5631;DHT22;2837;50.990;7.124;2022-12-18T09:13:38;1.50;99.90
5631;DHT22;2837;50.990;7.124;2022-12-18T09:16:04;1.60;99.90
5631;DHT22;2837;50.990;7.124;2022-12-18T09:18:30;1.70;99.90
5631;DHT22;2837;50.990;7.124;2022-12-18T09:20:55;1.70;99.90
5631;DHT22;2837;50.990;7.124;2022-12-18T09:23:21;1.80;99.90
5631;DHT22;2837;50.990;7.124;2022-12-18T09:25:47;1.70;99.90
5631;DHT22;2837;50.990;7.124;2022-12-18T09:28:15;1.70;99.90
5631;DHT22;2837;50.990;7.124;2022-12-18T09:30:44;1.80;99.90
5631;DHT22;2837;50.990;7.124;2022-12-18T09:33:10;1.80;99.90
5631;DHT22;2837;50.990;7.124;2022-12-18T09:35:37;1.80;99.90
5631;DHT22;2837;50.990;7.124;2022-12-18T09:38:06;1.90;99.90
5631;DHT22;2837;50.990;7.124;2022-12-18T09:40:44;1.90;99.90
5631;DHT22;2837;50.990;7.124;2022-12-18T09:43:30;1.90;99.90
5631;DHT22;2837;50.990;7.124;2022-12-18T09:46:02;2.00;99.90
5631;DHT22;2837;50.990;7.124;2022-12-18T09:48:38;2.00;99.90
5631;DHT22;2837;50.990;7.124;2022-12-18T09:51:30;2.00;99.90
5631;DHT22;2837;50.990;7.124;2022-12-18T09:54:04;2.00;99.90
5631;DHT22;2837;50.990;7.124;2022-12-18T09:56:35;1.90;99.90
5631;DHT22;2837;50.990;7.124;2022-12-18T09:59:03;2.00;99.90
5631;DHT22;2837;50.990;7.124;2022-12-18T10:01:31;2.10;99.90
5631;DHT22;2837;50.990;7.124;2022-12-18T10:03:57;2.20;99.90
5631;DHT22;2837;50.990;7.124;2022-12-18T10:06:34;2.20;99.90
5631;DHT22;2837;50.990;7.124;2022-12-18T10:09:24;2.10;99.90
5631;DHT22;2837;50.990;7.124;2022-12-18T10:17:26;2.20;99.90
5631;DHT22;2837;50.990;7.124;2022-12-18T10:20:00;2.10;99.90
5631;DHT22;2837;50.990;7.124;2022-12-18T10:22:39;2.20;99.90
5631;DHT22;2837;50.990;7.124;2022-12-18T10:27:57;2.30;99.90
5631;DHT22;2837;50.990;7.124;2022-12-18T10:30:24;2.30;99.90
5631;DHT22;2837;50.990;7.124;2022-12-18T10:32:51;2.40;99.90
5631;DHT22;2837;50.990;7.124;2022-12-18T10:35:25;2.40;99.90
5631;DHT22;2837;50.990;7.124;2022-12-18T10:40:32;2.40;99.90
5631;DHT22;2837;50.990;7.124;2022-12-18T10:43:14;2.40;99.90
5631;DHT22;2837;50.990;7.124;2022-12-18T10:45:41;2.50;99.90
5631;DHT22;2837;50.990;7.124;2022-12-18T10:48:21;2.50;99.90
5631;DHT22;2837;50.990;7.124;2022-12-18T10:50:49;2.50;99.90
5631;DHT22;2837;50.990;7.124;2022-12-18T10:53:36;2.60;99.90
5631;DHT22;2837;50.990;7.124;2022-12-18T10:56:04;2.60;99.90
5631;DHT22;2837;50.990;7.124;2022-12-18T10:58:33;2.60;99.90
5631;DHT22;2837;50.990;7.124;2022-12-18T11:03:39;2.60;99.90
5631;DHT22;2837;50.990;7.124;2022-12-18T11:08:35;2.60;99.90
5631;DHT22;2837;50.990;7.124;2022-12-18T11:11:01;2.70;99.90
5631;DHT22;2837;50.990;7.124;2022-12-18T11:13:29;2.70;99.90
5631;DHT22;2837;50.990;7.124;2022-12-18T11:15:56;2.70;99.90
5631;DHT22;2837;50.990;7.124;2022-12-18T11:18:28;2.70;99.90
5631;DHT22;2837;50.990;7.124;2022-12-18T11:21:21;2.70;99.90
5631;DHT22;2837;50.990;7.124;2022-12-18T11:23:51;2.80;99.90
5631;DHT22;2837;50.990;7.124;2022-12-18T11:26:17;2.80;99.90
5631;DHT22;2837;50.990;7.124;2022-12-18T11:28:51;2.90;99.90
5631;DHT22;2837;50.990;7.124;2022-12-18T11:31:27;2.80;99.90
5631;DHT22;2837;50.990;7.124;2022-12-18T11:36:48;2.90;99.90
5631;DHT22;2837;50.990;7.124;2022-12-18T11:39:20;3.00;99.90
5631;DHT22;2837;50.990;7.124;2022-12-18T11:41:59;3.00;99.90
5631;DHT22;2837;50.990;7.124;2022-12-18T11:44:44;3.00;99.90
5631;DHT22;2837;50.990;7.124;2022-12-18T11:50:41;3.00;99.90
5631;DHT22;2837;50.990;7.124;2022-12-18T11:53:02;3.20;99.90
5631;DHT22;2837;50.990;7.124;2022-12-18T11:55:39;3.10;99.90
5631;DHT22;2837;50.990;7.124;2022-12-18T11:58:37;3.10;99.90
5631;DHT22;2837;50.990;7.124;2022-12-18T12:03:59;3.10;99.90
5631;DHT22;2837;50.990;7.124;2022-12-18T12:15:10;3.10;99.90
5631;DHT22;2837;50.990;7.124;2022-12-18T12:22:59;3.20;99.90
5631;DHT22;2837;50.990;7.124;2022-12-18T12:25:39;3.20;99.90
5631;DHT22;2837;50.990;7.124;2022-12-18T12:39:01;3.00;99.90
5631;DHT22;2837;50.990;7.124;2022-12-18T12:41:31;2.90;99.90
5631;DHT22;2837;50.990;7.124;2022-12-18T12:44:39;2.80;99.90
5631;DHT22;2837;50.990;7.124;2022-12-18T12:47:27;2.80;99.90
5631;DHT22;2837;50.990;7.124;2022-12-18T12:49:54;2.80;99.90
5631;DHT22;2837;50.990;7.124;2022-12-18T12:52:30;2.80;99.90
5631;DHT22;2837;50.990;7.124;2022-12-18T12:54:58;2.80;99.90
5631;DHT22;2837;50.990;7.124;2022-12-18T12:57:45;2.90;99.90
5631;DHT22;2837;50.990;7.124;2022-12-18T13:00:17;2.90;99.90
5631;DHT22;2837;50.990;7.124;2022-12-18T13:05:48;2.80;99.90
5631;DHT22;2837;50.990;7.124;2022-12-18T13:08:28;2.80;99.90
5631;DHT22;2837;50.990;7.124;2022-12-18T13:10:54;2.60;99.90
5631;DHT22;2837;50.990;7.124;2022-12-18T13:14:12;2.60;99.90
5631;DHT22;2837;50.990;7.124;2022-12-18T13:16:45;2.60;99.90
5631;DHT22;2837;50.990;7.124;2022-12-18T13:19:21;2.60;99.90
5631;DHT22;2837;50.990;7.124;2022-12-18T13:21:54;2.60;99.90
5631;DHT22;2837;50.990;7.124;2022-12-18T13:24:27;2.60;99.90
5631;DHT22;2837;50.990;7.124;2022-12-18T13:26:53;2.60;99.90
5631;DHT22;2837;50.990;7.124;2022-12-18T13:29:44;2.60;99.90
5631;DHT22;2837;50.990;7.124;2022-12-18T13:32:24;2.70;99.90
5631;DHT22;2837;50.990;7.124;2022-12-18T13:37:52;2.80;99.90
5631;DHT22;2837;50.990;7.124;2022-12-18T13:46:00;2.90;99.90
5631;DHT22;2837;50.990;7.124;2022-12-18T13:48:27;3.00;99.90
5631;DHT22;2837;50.990;7.124;2022-12-18T13:51:09;2.90;99.90
5631;DHT22;2837;50.990;7.124;2022-12-18T13:56:43;2.80;99.90
5631;DHT22;2837;50.990;7.124;2022-12-18T13:59:22;2.80;99.90
5631;DHT22;2837;50.990;7.124;2022-12-18T14:01:59;2.80;99.90
5631;DHT22;2837;50.990;7.124;2022-12-18T14:04:26;2.80;99.90
5631;DHT22;2837;50.990;7.124;2022-12-18T14:06:56;2.70;99.90
5631;DHT22;2837;50.990;7.124;2022-12-18T14:09:29;2.70;99.90
5631;DHT22;2837;50.990;7.124;2022-12-18T14:11:56;2.70;99.90
5631;DHT22;2837;50.990;7.124;2022-12-18T14:14:46;2.70;99.90
5631;DHT22;2837;50.990;7.124;2022-12-18T14:17:13;2.70;99.90
5631;DHT22;2837;50.990;7.124;2022-12-18T14:19:47;2.80;99.90
5631;DHT22;2837;50.990;7.124;2022-12-18T14:22:19;2.70;99.90
5631;DHT22;2837;50.990;7.124;2022-12-18T14:24:46;2.70;99.90
5631;DHT22;2837;50.990;7.124;2022-12-18T14:27:19;2.70;99.90
5631;DHT22;2837;50.990;7.124;2022-12-18T14:29:45;2.70;99.90
5631;DHT22;2837;50.990;7.124;2022-12-18T14:32:19;2.80;99.90
5631;DHT22;2837;50.990;7.124;2022-12-18T14:34:52;2.70;99.90
5631;DHT22;2837;50.990;7.124;2022-12-18T14:37:26;2.60;99.90
5631;DHT22;2837;50.990;7.124;2022-12-18T14:42:19;2.60;99.90
5631;DHT22;2837;50.990;7.124;2022-12-18T14:44:45;2.60;99.90
5631;DHT22;2837;50.990;7.124;2022-12-18T14:47:15;2.60;99.90
5631;DHT22;2837;50.990;7.124;2022-12-18T14:49:42;2.60;99.90
5631;DHT22;2837;50.990;7.124;2022-12-18T14:52:26;2.70;99.90
5631;DHT22;2837;50.990;7.124;2022-12-18T14:54:52;2.70;99.90
5631;DHT22;2837;50.990;7.124;2022-12-18T14:57:23;2.70;99.90
5631;DHT22;2837;50.990;7.124;2022-12-18T14:59:50;2.80;99.90
5631;DHT22;2837;50.990;7.124;2022-12-18T15:02:26;2.80;99.90
5631;DHT22;2837;50.990;7.124;2022-12-18T15:05:01;2.80;99.90
5631;DHT22;2837;50.990;7.124;2022-12-18T15:07:43;2.80;99.90
5631;DHT22;2837;50.990;7.124;2022-12-18T15:10:16;2.80;99.90
5631;DHT22;2837;50.990;7.124;2022-12-18T15:12:45;2.70;99.90
5631;DHT22;2837;50.990;7.124;2022-12-18T15:17:59;2.70;99.90
5631;DHT22;2837;50.990;7.124;2022-12-18T15:20:31;2.50;99.90
5631;DHT22;2837;50.990;7.124;2022-12-18T15:22:58;2.40;99.90
5631;DHT22;2837;50.990;7.124;2022-12-18T15:25:32;2.40;99.90
5631;DHT22;2837;50.990;7.124;2022-12-18T15:27:59;2.30;99.90
5631;DHT22;2837;50.990;7.124;2022-12-18T15:30:25;2.20;99.90
5631;DHT22;2837;50.990;7.124;2022-12-18T15:32:51;2.20;99.90
5631;DHT22;2837;50.990;7.124;2022-12-18T15:35:21;2.20;99.90
5631;DHT22;2837;50.990;7.124;2022-12-18T15:37:48;2.20;99.90
5631;DHT22;2837;50.990;7.124;2022-12-18T15:40:19;2.30;99.90
5631;DHT22;2837;50.990;7.124;2022-12-18T15:42:45;2.30;99.90
5631;DHT22;2837;50.990;7.124;2022-12-18T15:45:30;2.30;99.90
5631;DHT22;2837;50.990;7.124;2022-12-18T15:47:57;2.30;99.90
5631;DHT22;2837;50.990;7.124;2022-12-18T15:50:23;2.20;99.90
5631;DHT22;2837;50.990;7.124;2022-12-18T15:52:50;2.20;99.90
5631;DHT22;2837;50.990;7.124;2022-12-18T15:55:21;2.20;99.90
5631;DHT22;2837;50.990;7.124;2022-12-18T15:58:07;2.20;99.90
5631;DHT22;2837;50.990;7.124;2022-12-18T16:00:34;2.30;99.90
5631;DHT22;2837;50.990;7.124;2022-12-18T16:03:00;2.40;99.90
5631;DHT22;2837;50.990;7.124;2022-12-18T16:05:27;2.30;99.90
5631;DHT22;2837;50.990;7.124;2022-12-18T16:07:53;2.30;99.90
5631;DHT22;2837;50.990;7.124;2022-12-18T16:10:18;2.30;99.90
5631;DHT22;2837;50.990;7.124;2022-12-18T16:12:44;2.20;99.90
5631;DHT22;2837;50.990;7.124;2022-12-18T16:15:14;2.30;99.90
5631;DHT22;2837;50.990;7.124;2022-12-18T16:17:42;2.30;99.90
5631;DHT22;2837;50.990;7.124;2022-12-18T16:20:15;2.30;99.90
5631;DHT22;2837;50.990;7.124;2022-12-18T16:22:42;2.30;99.90
5631;DHT22;2837;50.990;7.124;2022-12-18T16:25:20;2.30;99.90
5631;DHT22;2837;50.990;7.124;2022-12-18T16:27:47;2.30;99.90
5631;DHT22;2837;50.990;7.124;2022-12-18T16:30:17;2.30;99.90
5631;DHT22;2837;50.990;7.124;2022-12-18T16:32:43;2.30;99.90
5631;DHT22;2837;50.990;7.124;2022-12-18T16:35:13;2.30;99.90
5631;DHT22;2837;50.990;7.124;2022-12-18T16:37:40;2.20;99.90
5631;DHT22;2837;50.990;7.124;2022-12-18T16:40:07;2.10;99.90
5631;DHT22;2837;50.990;7.124;2022-12-18T16:42:37;2.20;99.90
5631;DHT22;2837;50.990;7.124;2022-12-18T16:45:04;2.20;99.90
5631;DHT22;2837;50.990;7.124;2022-12-18T16:47:29;2.20;99.90
5631;DHT22;2837;50.990;7.124;2022-12-18T16:49:55;2.30;99.90
5631;DHT22;2837;50.990;7.124;2022-12-18T16:52:20;2.40;99.90
5631;DHT22;2837;50.990;7.124;2022-12-18T16:54:46;2.40;99.90
5631;DHT22;2837;50.990;7.124;2022-12-18T16:57:15;2.40;99.90
5631;DHT22;2837;50.990;7.124;2022-12-18T16:59:41;2.30;99.90
5631;DHT22;2837;50.990;7.124;2022-12-18T17:02:12;2.30;99.90
5631;DHT22;2837;50.990;7.124;2022-12-18T17:04:39;2.20;99.90
5631;DHT22;2837;50.990;7.124;2022-12-18T17:07:05;2.20;99.90
5631;DHT22;2837;50.990;7.124;2022-12-18T17:09:30;2.20;99.90
5631;DHT22;2837;50.990;7.124;2022-12-18T17:11:56;2.20;99.90
5631;DHT22;2837;50.990;7.124;2022-12-18T17:14:23;2.10;99.90
5631;DHT22;2837;50.990;7.124;2022-12-18T17:16:50;2.20;99.90
5631;DHT22;2837;50.990;7.124;2022-12-18T17:19:15;2.20;99.90
5631;DHT22;2837;50.990;7.124;2022-12-18T17:21:46;2.10;99.90
5631;DHT22;2837;50.990;7.124;2022-12-18T17:24:12;2.10;99.90
5631;DHT22;2837;50.990;7.124;2022-12-18T17:26:38;2.00;99.90
5631;DHT22;2837;50.990;7.124;2022-12-18T17:29:04;2.00;99.90
5631;DHT22;2837;50.990;7.124;2022-12-18T17:31:30;2.10;99.90
5631;DHT22;2837;50.990;7.124;2022-12-18T17:33:56;2.10;99.90
5631;DHT22;2837;50.990;7.124;2022-12-18T17:36:23;2.10;99.90
5631;DHT22;2837;50.990;7.124;2022-12-18T17:38:50;2.00;99.90
5631;DHT22;2837;50.990;7.124;2022-12-18T17:41:16;2.10;99.90
5631;DHT22;2837;50.990;7.124;2022-12-18T17:43:42;2.10;99.90
5631;DHT22;2837;50.990;7.124;2022-12-18T17:46:11;2.10;99.90
5631;DHT22;2837;50.990;7.124;2022-12-18T17:48:37;2.10;99.90
5631;DHT22;2837;50.990;7.124;2022-12-18T17:51:06;2.10;99.90
5631;DHT22;2837;50.990;7.124;2022-12-18T17:53:32;2.10;99.90
5631;DHT22;2837;50.990;7.124;2022-12-18T17:55:59;2.20;99.90
5631;DHT22;2837;50.990;7.124;2022-12-18T17:58:30;2.10;99.90
5631;DHT22;2837;50.990;7.124;2022-12-18T18:00:56;2.10;99.90
5631;DHT22;2837;50.990;7.124;2022-12-18T18:03:25;2.00;99.90
5631;DHT22;2837;50.990;7.124;2022-12-18T18:05:55;1.90;99.90
5631;DHT22;2837;50.990;7.124;2022-12-18T18:08:21;2.00;99.90
5631;DHT22;2837;50.990;7.124;2022-12-18T18:10:46;2.00;99.90
5631;DHT22;2837;50.990;7.124;2022-12-18T18:13:24;2.00;99.90
5631;DHT22;2837;50.990;7.124;2022-12-18T18:16:10;2.10;99.90
5631;DHT22;2837;50.990;7.124;2022-12-18T18:18:36;2.10;99.90
5631;DHT22;2837;50.990;7.124;2022-12-18T18:21:08;2.10;99.90
5631;DHT22;2837;50.990;7.124;2022-12-18T18:23:34;2.00;99.90
5631;DHT22;2837;50.990;7.124;2022-12-18T18:26:04;2.00;99.90
5631;DHT22;2837;50.990;7.124;2022-12-18T18:28:29;2.00;99.90
5631;DHT22;2837;50.990;7.124;2022-12-18T18:30:55;2.00;99.90
5631;DHT22;2837;50.990;7.124;2022-12-18T18:33:20;1.90;99.90
5631;DHT22;2837;50.990;7.124;2022-12-18T18:35:46;1.90;99.90
5631;DHT22;2837;50.990;7.124;2022-12-18T18:38:11;1.90;99.90
5631;DHT22;2837;50.990;7.124;2022-12-18T18:40:37;1.90;99.90
5631;DHT22;2837;50.990;7.124;2022-12-18T18:43:03;2.00;99.90
5631;DHT22;2837;50.990;7.124;2022-12-18T18:45:28;1.90;99.90
5631;DHT22;2837;50.990;7.124;2022-12-18T18:47:54;1.90;99.90
5631;DHT22;2837;50.990;7.124;2022-12-18T18:50:19;2.00;99.90
5631;DHT22;2837;50.990;7.124;2022-12-18T18:52:45;2.00;99.90
5631;DHT22;2837;50.990;7.124;2022-12-18T18:55:11;2.00;99.90
5631;DHT22;2837;50.990;7.124;2022-12-18T18:57:36;2.10;99.90
5631;DHT22;2837;50.990;7.124;2022-12-18T19:00:02;2.00;99.90
5631;DHT22;2837;50.990;7.124;2022-12-18T19:02:28;2.00;99.90
5631;DHT22;2837;50.990;7.124;2022-12-18T19:04:53;2.00;99.90
5631;DHT22;2837;50.990;7.124;2022-12-18T19:07:19;2.10;99.90
5631;DHT22;2837;50.990;7.124;2022-12-18T19:09:45;2.10;99.90
5631;DHT22;2837;50.990;7.124;2022-12-18T19:12:16;2.00;99.90
5631;DHT22;2837;50.990;7.124;2022-12-18T19:15:00;2.00;99.90
5631;DHT22;2837;50.990;7.124;2022-12-18T19:17:27;2.00;99.90
5631;DHT22;2837;50.990;7.124;2022-12-18T19:19:53;2.00;99.90
5631;DHT22;2837;50.990;7.124;2022-12-18T19:22:18;2.00;99.90
5631;DHT22;2837;50.990;7.124;2022-12-18T19:24:44;2.00;99.90
5631;DHT22;2837;50.990;7.124;2022-12-18T19:27:10;2.10;99.90
5631;DHT22;2837;50.990;7.124;2022-12-18T19:29:36;2.10;99.90
5631;DHT22;2837;50.990;7.124;2022-12-18T19:32:02;2.10;99.90
5631;DHT22;2837;50.990;7.124;2022-12-18T19:34:27;2.10;99.90
5631;DHT22;2837;50.990;7.124;2022-12-18T19:36:53;2.20;99.90
5631;DHT22;2837;50.990;7.124;2022-12-18T19:39:19;2.20;99.90
5631;DHT22;2837;50.990;7.124;2022-12-18T19:41:45;2.30;99.90
5631;DHT22;2837;50.990;7.124;2022-12-18T19:44:16;2.30;99.90
5631;DHT22;2837;50.990;7.124;2022-12-18T19:46:42;2.20;99.90
5631;DHT22;2837;50.990;7.124;2022-12-18T19:49:09;2.30;99.90
5631;DHT22;2837;50.990;7.124;2022-12-18T19:51:34;2.30;99.90
5631;DHT22;2837;50.990;7.124;2022-12-18T19:54:00;2.30;99.90
5631;DHT22;2837;50.990;7.124;2022-12-18T19:56:28;2.40;99.90
5631;DHT22;2837;50.990;7.124;2022-12-18T19:58:54;2.40;99.90
5631;DHT22;2837;50.990;7.124;2022-12-18T20:01:21;2.40;99.90
5631;DHT22;2837;50.990;7.124;2022-12-18T20:03:47;2.40;99.90
5631;DHT22;2837;50.990;7.124;2022-12-18T20:08:44;2.30;99.90
5631;DHT22;2837;50.990;7.124;2022-12-18T20:11:11;2.30;99.90
5631;DHT22;2837;50.990;7.124;2022-12-18T20:13:36;2.30;99.90
5631;DHT22;2837;50.990;7.124;2022-12-18T20:16:02;2.40;99.90
5631;DHT22;2837;50.990;7.124;2022-12-18T20:18:28;2.40;99.90
5631;DHT22;2837;50.990;7.124;2022-12-18T20:20:53;2.40;99.90
5631;DHT22;2837;50.990;7.124;2022-12-18T20:23:19;2.40;99.90
5631;DHT22;2837;50.990;7.124;2022-12-18T20:25:47;2.50;99.90
5631;DHT22;2837;50.990;7.124;2022-12-18T20:28:12;2.50;99.90
5631;DHT22;2837;50.990;7.124;2022-12-18T20:30:38;2.50;99.90
5631;DHT22;2837;50.990;7.124;2022-12-18T20:33:03;2.50;99.90
5631;DHT22;2837;50.990;7.124;2022-12-18T20:35:31;2.50;99.90
5631;DHT22;2837;50.990;7.124;2022-12-18T20:37:57;2.50;99.90
5631;DHT22;2837;50.990;7.124;2022-12-18T20:40:23;2.50;99.90
5631;DHT22;2837;50.990;7.124;2022-12-18T20:42:49;2.50;99.90
5631;DHT22;2837;50.990;7.124;2022-12-18T20:45:14;2.60;99.90
5631;DHT22;2837;50.990;7.124;2022-12-18T20:47:40;2.40;99.90
5631;DHT22;2837;50.990;7.124;2022-12-18T20:50:06;2.60;99.90
5631;DHT22;2837;50.990;7.124;2022-12-18T20:52:32;2.60;99.90
5631;DHT22;2837;50.990;7.124;2022-12-18T20:54:58;2.60;99.90
5631;DHT22;2837;50.990;7.124;2022-12-18T20:57:24;2.60;99.90
5631;DHT22;2837;50.990;7.124;2022-12-18T20:59:49;2.60;99.90
5631;DHT22;2837;50.990;7.124;2022-12-18T21:02:15;2.60;99.90
5631;DHT22;2837;50.990;7.124;2022-12-18T21:04:40;2.60;99.90
5631;DHT22;2837;50.990;7.124;2022-12-18T21:07:06;2.70;99.90
5631;DHT22;2837;50.990;7.124;2022-12-18T21:09:32;2.70;99.90
5631;DHT22;2837;50.990;7.124;2022-12-18T21:11:58;2.60;99.90
5631;DHT22;2837;50.990;7.124;2022-12-18T21:14:43;2.60;99.90
5631;DHT22;2837;50.990;7.124;2022-12-18T21:17:09;2.70;99.90
5631;DHT22;2837;50.990;7.124;2022-12-18T21:19:35;2.70;99.90
5631;DHT22;2837;50.990;7.124;2022-12-18T21:22:00;2.70;99.90
5631;DHT22;2837;50.990;7.124;2022-12-18T21:24:26;2.80;99.90
5631;DHT22;2837;50.990;7.124;2022-12-18T21:26:52;2.80;99.90
5631;DHT22;2837;50.990;7.124;2022-12-18T21:29:23;2.80;99.90
5631;DHT22;2837;50.990;7.124;2022-12-18T21:31:50;2.80;99.90
5631;DHT22;2837;50.990;7.124;2022-12-18T21:34:19;2.80;99.90
5631;DHT22;2837;50.990;7.124;2022-12-18T21:36:45;2.70;99.90
5631;DHT22;2837;50.990;7.124;2022-12-18T21:39:12;2.80;99.90
5631;DHT22;2837;50.990;7.124;2022-12-18T21:41:37;2.70;99.90
5631;DHT22;2837;50.990;7.124;2022-12-18T21:44:22;2.70;99.90
5631;DHT22;2837;50.990;7.124;2022-12-18T21:46:48;2.70;99.90
5631;DHT22;2837;50.990;7.124;2022-12-18T21:49:16;2.80;99.90
5631;DHT22;2837;50.990;7.124;2022-12-18T21:51:43;2.80;99.90
5631;DHT22;2837;50.990;7.124;2022-12-18T21:54:09;2.90;99.90
5631;DHT22;2837;50.990;7.124;2022-12-18T21:56:50;2.90;99.90
5631;DHT22;2837;50.990;7.124;2022-12-18T21:59:21;2.90;99.90
